Time;durP1;ratioP1;P1;durP2;ratioP2;P2;SDS_P1;SDS_P2;PMS_P1;PMS_P2;Temp;Humidity;BMP_temperature;BMP_pressure;BME280_temperature;BME280_humidity;BME280_pressure;Samples;Min_cycle;Max_cycle;Signal;HPM_P1;HPM_P2
2021/05/13 12:52:07;;;;;;;3.25;1.20;;;19.40;92.90;;;;;;5108276;27;20623;-60
2021/05/13 12:54:36;;;;;;;2.20;1.08;;;19.00;93.30;;;;;;5105154;28;20035;-69
2021/05/13 12:57:08;;;;;;;2.35;1.52;;;18.90;93.70;;;;;;5114532;28;20020;-70
2021/05/13 12:59:34;;;;;;;3.13;1.20;;;18.70;93.90;;;;;;5120493;28;20092;-70
2021/05/13 13:01:59;;;;;;;4.32;1.25;;;18.70;94.00;;;;;;5117701;28;20058;-70
2021/05/13 13:04:25;;;;;;;3.20;1.15;;;18.70;94.10;;;;;;5113627;28;20019;-71
2021/05/13 13:06:53;;;;;;;3.90;1.30;;;18.70;94.10;;;;;;5120136;28;20020;-66
2021/05/13 13:09:37;;;;;;;2.45;1.42;;;18.70;94.10;;;;;;5115891;28;20422;-69
2021/05/13 13:12:10;;;;;;;4.13;1.50;;;18.80;94.10;;;;;;5117522;28;20168;-70
2021/05/13 13:14:42;;;;;;;3.22;1.20;;;18.80;94.00;;;;;;5113166;28;20016;-62
2021/05/13 13:17:39;;;;;;;2.22;1.20;;;18.90;94.00;;;;;;5119738;28;20030;-70
2021/05/13 13:20:10;;;;;;;3.72;1.33;;;18.90;94.00;;;;;;5093754;28;20124;-70
2021/05/13 13:22:37;;;;;;;2.38;1.10;;;19.00;93.90;;;;;;5115377;28;20028;-63
2021/05/13 13:25:14;;;;;;;4.03;1.23;;;19.10;93.70;;;;;;5118103;28;20391;-64
2021/05/13 13:27:42;;;;;;;2.72;1.35;;;19.10;93.60;;;;;;5124173;28;20031;-71
2021/05/13 13:30:14;;;;;;;2.03;1.17;;;19.20;93.80;;;;;;5111466;28;20046;-69
2021/05/13 13:32:41;;;;;;;2.72;1.27;;;19.30;93.50;;;;;;5121300;27;20479;-63
2021/05/13 13:35:12;;;;;;;2.78;1.30;;;19.20;93.40;;;;;;5119256;28;20019;-68
2021/05/13 13:37:39;;;;;;;1.55;1.00;;;19.20;93.40;;;;;;5113302;28;20032;-71
2021/05/13 13:40:06;;;;;;;2.05;1.10;;;19.20;93.30;;;;;;5125361;28;20022;-72
2021/05/13 13:42:32;;;;;;;2.03;1.05;;;19.30;93.30;;;;;;5109850;28;20032;-67
2021/05/13 13:44:58;;;;;;;1.23;0.68;;;20.10;93.00;;;;;;5112774;28;20439;-65
2021/05/13 13:47:27;;;;;;;0.88;0.60;;;21.50;91.50;;;;;;5107779;28;20115;-65
2021/05/13 13:49:53;;;;;;;4.22;1.00;;;22.10;90.50;;;;;;5124635;28;20038;-66
2021/05/13 13:52:19;;;;;;;3.45;0.70;;;22.60;90.30;;;;;;5112153;28;20090;-66
2021/05/13 13:54:45;;;;;;;1.77;0.80;;;23.10;88.80;;;;;;5118885;28;20107;-65
2021/05/13 13:57:10;;;;;;;3.20;0.90;;;23.60;87.30;;;;;;5118722;28;20391;-66
2021/05/13 13:59:36;;;;;;;2.20;0.80;;;23.80;86.50;;;;;;5113076;28;20030;-65
2021/05/13 14:02:02;;;;;;;2.20;1.00;;;24.10;85.90;;;;;;5112932;28;20027;-66
2021/05/13 14:04:27;;;;;;;2.95;0.80;;;24.20;85.10;;;;;;5108573;28;20492;-65
2021/05/13 14:06:53;;;;;;;2.05;0.60;;;23.50;86.10;;;;;;5103035;28;20467;-65
2021/05/13 14:09:19;;;;;;;2.47;0.70;;;23.30;86.90;;;;;;5107377;28;20031;-66
2021/05/13 14:11:45;;;;;;;3.00;0.43;;;23.40;87.00;;;;;;5097901;28;20358;-65
2021/05/13 14:14:11;;;;;;;3.22;0.55;;;23.40;87.70;;;;;;5104477;28;20023;-66
2021/05/13 14:16:37;;;;;;;2.83;0.70;;;23.60;88.30;;;;;;5100908;28;20152;-65
2021/05/13 14:19:03;;;;;;;3.13;0.95;;;23.60;86.70;;;;;;5103864;28;20020;-65
2021/05/13 14:21:29;;;;;;;3.38;1.05;;;23.40;86.70;;;;;;5093927;28;20043;-65
2021/05/13 14:23:54;;;;;;;1.30;0.68;;;23.00;87.90;;;;;;5096837;28;20081;-65
2021/05/13 14:26:20;;;;;;;1.60;0.70;;;22.80;88.20;;;;;;5101819;28;20475;-65
2021/05/13 14:28:46;;;;;;;1.40;0.70;;;22.60;88.30;;;;;;5096436;28;20024;-64
2021/05/13 14:31:11;;;;;;;3.17;0.90;;;22.50;88.90;;;;;;5100554;28;20493;-65
2021/05/13 14:33:37;;;;;;;2.47;0.80;;;22.40;89.00;;;;;;5107919;28;20020;-64
2021/05/13 14:36:03;;;;;;;1.33;0.75;;;22.40;89.30;;;;;;5097275;28;20418;-64
2021/05/13 14:38:28;;;;;;;1.98;0.90;;;22.40;89.30;;;;;;5107714;28;20367;-65
2021/05/13 14:40:54;;;;;;;1.60;0.70;;;22.40;89.40;;;;;;5102509;28;20081;-65
2021/05/13 14:43:20;;;;;;;2.03;0.80;;;22.40;89.40;;;;;;5106556;28;20035;-66
2021/05/13 14:45:46;;;;;;;2.33;0.80;;;22.40;89.70;;;;;;5096831;28;20109;-65
2021/05/13 14:50:38;;;;;;;1.27;0.65;;;22.30;89.90;;;;;;5106269;28;20384;-64
2021/05/13 14:53:04;;;;;;;2.03;1.10;;;22.30;89.70;;;;;;5093828;28;20038;-63
2021/05/13 14:55:30;;;;;;;1.92;0.90;;;22.30;89.70;;;;;;5093391;28;20024;-64
2021/05/13 14:57:56;;;;;;;2.28;0.90;;;22.30;89.70;;;;;;5094980;28;20017;-65
2021/05/13 15:00:24;;;;;;;1.65;0.70;;;22.30;89.90;;;;;;5100587;28;20051;-68
2021/05/13 15:02:51;;;;;;;2.15;1.00;;;22.30;90.20;;;;;;5104358;28;20024;-70
2021/05/13 15:05:17;;;;;;;2.97;0.80;;;22.30;90.20;;;;;;5100507;28;20053;-71
2021/05/13 15:07:43;;;;;;;1.55;0.68;;;22.30;89.80;;;;;;5109011;28;20383;-67
2021/05/13 15:10:10;;;;;;;2.63;1.10;;;22.40;89.90;;;;;;5095796;28;20024;-68
2021/05/13 15:12:37;;;;;;;2.88;0.70;;;22.50;90.10;;;;;;5100466;28;20035;-66
2021/05/13 15:15:03;;;;;;;2.80;0.80;;;22.50;90.00;;;;;;5091741;28;20036;-66
2021/05/13 15:17:29;;;;;;;2.95;0.80;;;22.50;89.80;;;;;;5091684;28;20055;-67
2021/05/13 15:19:55;;;;;;;4.88;1.00;;;22.50;90.00;;;;;;5100255;28;20501;-66
2021/05/13 15:22:21;;;;;;;1.77;0.88;;;22.50;90.60;;;;;;5108211;28;20027;-67
2021/05/13 15:24:47;;;;;;;3.50;0.80;;;22.50;90.40;;;;;;5092580;28;20105;-65
2021/05/13 15:27:13;;;;;;;4.10;1.10;;;22.90;90.40;;;;;;5104152;28;20108;-66
2021/05/13 15:29:39;;;;;;;3.53;0.90;;;23.10;90.10;;;;;;5097073;28;20074;-66
2021/05/13 15:32:04;;;;;;;6.45;1.00;;;23.40;89.30;;;;;;5103624;28;20535;-66
2021/05/13 15:34:30;;;;;;;4.35;0.95;;;23.50;89.10;;;;;;5100525;28;20480;-65
2021/05/13 15:36:56;;;;;;;4.18;0.70;;;23.50;88.90;;;;;;5101707;28;20030;-65
2021/05/13 15:39:22;;;;;;;3.80;0.77;;;23.30;89.30;;;;;;5101491;28;20398;-66
2021/05/13 15:41:48;;;;;;;2.35;0.80;;;23.40;89.40;;;;;;5096785;28;20024;-66
2021/05/13 15:44:14;;;;;;;4.15;0.73;;;23.20;89.60;;;;;;5106449;28;20052;-66
2021/05/13 15:46:40;;;;;;;2.40;0.80;;;22.90;90.20;;;;;;5090397;28;20022;-66
2021/05/13 15:49:05;;;;;;;1.95;0.70;;;22.70;90.20;;;;;;5101645;28;20111;-66
2021/05/13 15:51:31;;;;;;;1.58;0.57;;;22.70;90.50;;;;;;5095860;28;20068;-67
2021/05/13 15:53:57;;;;;;;2.15;0.55;;;22.60;90.30;;;;;;5107054;28;20034;-66
2021/05/13 15:56:23;;;;;;;1.52;0.60;;;22.60;90.40;;;;;;5095094;28;20027;-67
2021/05/13 15:58:49;;;;;;;3.50;0.90;;;22.50;90.50;;;;;;5103711;28;20030;-66
2021/05/13 16:01:15;;;;;;;2.45;0.70;;;22.50;90.50;;;;;;5103639;28;20464;-66
2021/05/13 16:03:42;;;;;;;2.97;0.70;;;22.50;90.50;;;;;;5096233;28;20024;-66
2021/05/13 16:06:10;;;;;;;1.17;0.52;;;22.50;90.50;;;;;;5108832;28;20027;-66
2021/05/13 16:08:36;;;;;;;1.02;0.57;;;22.50;90.40;;;;;;5098812;28;20015;-66
2021/05/13 16:11:16;;;;;;;1.90;0.60;;;22.50;90.40;;;;;;5101532;28;20104;-66
2021/05/13 16:13:46;;;;;;;2.35;0.60;;;22.50;90.40;;;;;;5106621;28;20089;-66
2021/05/13 16:16:16;;;;;;;2.67;0.60;;;22.50;90.60;;;;;;5092477;28;20838;-66
2021/05/13 16:18:44;;;;;;;2.03;0.50;;;22.50;90.30;;;;;;5099138;28;20065;-66
2021/05/13 16:21:10;;;;;;;0.90;0.45;;;22.50;90.70;;;;;;5100087;28;20084;-67
2021/05/13 16:23:36;;;;;;;1.55;0.60;;;22.50;90.40;;;;;;5106973;28;20114;-66
2021/05/13 16:26:04;;;;;;;1.38;0.50;;;22.50;90.30;;;;;;5094728;28;20020;-66
2021/05/13 16:28:29;;;;;;;1.88;0.60;;;22.40;90.20;;;;;;5105853;28;20032;-66
2021/05/13 16:30:55;;;;;;;0.70;0.60;;;22.40;90.30;;;;;;5100609;28;20383;-66
2021/05/13 16:33:21;;;;;;;2.22;0.70;;;22.50;90.20;;;;;;5098550;28;20444;-67
2021/05/13 16:35:46;;;;;;;2.03;0.70;;;22.50;90.30;;;;;;5108046;28;20528;-66
2021/05/13 16:38:12;;;;;;;1.42;0.50;;;22.40;90.30;;;;;;5094366;28;20043;-66
2021/05/13 16:40:38;;;;;;;1.15;0.50;;;22.40;90.40;;;;;;5104797;28;20115;-66
2021/05/13 16:43:04;;;;;;;1.80;0.70;;;22.40;90.40;;;;;;5102067;28;20119;-66
2021/05/13 16:45:29;;;;;;;1.33;0.55;;;22.50;90.50;;;;;;5107387;28;20016;-66
2021/05/13 16:47:55;;;;;;;1.02;0.50;;;22.40;90.50;;;;;;5094702;28;20067;-66
2021/05/13 16:50:21;;;;;;;1.42;0.50;;;22.40;90.50;;;;;;5106364;28;20024;-66
2021/05/13 16:52:47;;;;;;;1.73;0.60;;;22.40;90.40;;;;;;5099569;28;20020;-66
2021/05/13 16:55:14;;;;;;;2.03;0.60;;;22.40;90.50;;;;;;5099033;28;20057;-66
2021/05/13 16:57:40;;;;;;;0.95;0.63;;;22.30;90.50;;;;;;5106810;28;20110;-66
2021/05/13 17:00:08;;;;;;;1.85;0.47;;;22.30;90.50;;;;;;5094893;28;20030;-66
2021/05/13 17:02:35;;;;;;;0.77;0.47;;;22.30;90.50;;;;;;5105382;28;20072;-65
2021/05/13 17:05:06;;;;;;;1.70;0.57;;;22.30;90.50;;;;;;5101431;28;20031;-68
2021/05/13 17:07:33;;;;;;;1.20;0.50;;;22.30;90.40;;;;;;5096720;28;20030;-68
2021/05/13 17:09:59;;;;;;;0.73;0.47;;;22.30;90.40;;;;;;5107796;28;20118;-68
2021/05/13 17:12:25;;;;;;;1.40;0.45;;;22.20;90.40;;;;;;5095678;28;20111;-67
2021/05/13 17:14:51;;;;;;;0.93;0.40;;;22.30;90.40;;;;;;5106960;28;20123;-66
2021/05/13 17:17:17;;;;;;;1.85;0.50;;;22.30;90.30;;;;;;5093526;28;20107;-67
2021/05/13 17:19:43;;;;;;;0.98;0.40;;;22.30;90.10;;;;;;5094827;28;20472;-66
2021/05/13 17:22:14;;;;;;;3.33;0.50;;;22.30;90.20;;;;;;5107646;28;20456;-65
2021/05/13 17:24:41;;;;;;;1.05;0.50;;;22.50;89.30;;;;;;5098177;28;20063;-66
2021/05/13 17:27:07;;;;;;;1.48;0.55;;;22.40;89.80;;;;;;5100219;28;20025;-67
2021/05/13 17:29:32;;;;;;;1.83;0.50;;;22.30;90.10;;;;;;5105206;28;20031;-67
2021/05/13 17:31:58;;;;;;;2.17;0.50;;;22.20;90.10;;;;;;5094105;28;20316;-67
2021/05/13 17:34:23;;;;;;;1.42;0.45;;;22.20;90.20;;;;;;5105689;28;20016;-65
2021/05/13 17:36:49;;;;;;;0.95;0.43;;;22.20;90.20;;;;;;5100302;28;20480;-65
2021/05/13 17:39:14;;;;;;;1.25;0.43;;;22.20;90.20;;;;;;5102258;28;20142;-65
2021/05/13 17:41:41;;;;;;;1.52;0.50;;;22.30;90.10;;;;;;5110335;28;20490;-65
2021/05/13 17:44:06;;;;;;;1.73;0.55;;;22.30;89.80;;;;;;5095161;28;20028;-65
2021/05/13 17:46:32;;;;;;;1.33;0.50;;;22.30;89.80;;;;;;5093459;28;20020;-65
2021/05/13 17:48:57;;;;;;;0.95;0.40;;;22.40;89.60;;;;;;5104134;28;20020;-64
2021/05/13 17:51:23;;;;;;;2.25;0.70;;;22.50;89.70;;;;;;5100845;28;20503;-65
2021/05/13 17:53:49;;;;;;;1.08;0.43;;;22.50;89.60;;;;;;5109749;28;20026;-65
2021/05/13 17:56:15;;;;;;;1.70;0.40;;;22.50;89.80;;;;;;5042586;27;20574;-65
2021/05/13 17:58:41;;;;;;;1.67;0.60;;;22.70;89.40;;;;;;5034005;28;20036;-64
2021/05/13 18:01:06;;;;;;;1.30;0.55;;;22.80;88.90;;;;;;5032581;28;20108;-64
2021/05/13 18:03:32;;;;;;;1.63;0.50;;;22.80;89.10;;;;;;5033825;28;20474;-64
2021/05/13 18:05:58;;;;;;;2.08;0.70;;;22.80;88.70;;;;;;5033240;28;20022;-64
2021/05/13 18:08:24;;;;;;;3.00;0.70;;;22.70;89.10;;;;;;5033609;28;20075;-64
2021/05/13 18:10:52;;;;;;;1.20;0.60;;;22.60;89.50;;;;;;5032399;28;20037;-66
2021/05/13 18:13:18;;;;;;;0.75;0.40;;;22.50;90.00;;;;;;5033308;28;20025;-66
2021/05/13 18:15:44;;;;;;;1.67;0.50;;;22.30;90.50;;;;;;5033231;28;20033;-67
2021/05/13 18:18:09;;;;;;;1.90;0.40;;;22.50;90.00;;;;;;5033270;28;20280;-68
2021/05/13 18:20:36;;;;;;;0.90;0.40;;;22.50;89.90;;;;;;5033657;28;20025;-65
2021/05/13 18:23:03;;;;;;;1.40;0.52;;;22.40;90.00;;;;;;5033510;28;20378;-67
2021/05/13 18:25:30;;;;;;;1.02;0.40;;;22.50;89.60;;;;;;5033251;28;20469;-66
2021/05/13 18:27:56;;;;;;;0.63;0.40;;;22.60;89.70;;;;;;5033342;28;20018;-68
2021/05/13 18:30:31;;;;;;;1.95;0.57;;;22.50;89.50;;;;;;5033098;28;20036;-66
2021/05/13 18:32:57;;;;;;;0.90;0.60;;;22.80;89.30;;;;;;5033405;28;20111;-66
2021/05/13 18:35:23;;;;;;;1.45;0.40;;;22.80;89.80;;;;;;5033065;28;20519;-67
2021/05/13 18:37:50;;;;;;;1.35;0.60;;;22.70;89.40;;;;;;5033219;28;20104;-66
2021/05/13 18:40:38;;;;;;;2.03;0.60;;;22.70;89.60;;;;;;5032996;28;20075;-66
2021/05/13 18:43:04;;;;;;;1.13;0.55;;;22.80;89.30;;;;;;5032987;28;20436;-66
2021/05/13 18:45:33;;;;;;;1.77;0.60;;;22.80;89.30;;;;;;5032524;28;20025;-65
2021/05/13 18:47:59;;;;;;;1.27;0.60;;;22.80;89.30;;;;;;5032601;28;20116;-66
2021/05/13 18:50:27;;;;;;;1.98;0.68;;;22.70;89.30;;;;;;5032601;28;20121;-66
2021/05/13 18:52:54;;;;;;;2.85;0.90;;;22.70;89.40;;;;;;5032918;28;20109;-66
2021/05/13 18:55:26;;;;;;;0.77;0.57;;;22.60;89.30;;;;;;5032516;28;20373;-66
2021/05/13 18:57:54;;;;;;;1.38;0.80;;;22.60;89.30;;;;;;5031815;28;20117;-66
2021/05/13 19:00:21;;;;;;;2.45;0.88;;;22.60;89.30;;;;;;5032100;28;20153;-66
2021/05/13 19:02:46;;;;;;;1.48;0.70;;;22.60;89.30;;;;;;5032100;28;20033;-65
2021/05/13 19:05:14;;;;;;;1.85;0.88;;;22.60;89.90;;;;;;5031170;28;20037;-66
2021/05/13 19:07:40;;;;;;;1.73;0.65;;;22.50;89.10;;;;;;5029319;28;20049;-66
2021/05/13 19:10:13;;;;;;;0.88;0.60;;;22.50;89.10;;;;;;5031472;28;20052;-66
2021/05/13 19:12:39;;;;;;;1.70;0.90;;;22.50;89.20;;;;;;5031894;28;20420;-66
2021/05/13 19:15:05;;;;;;;1.85;0.90;;;22.40;89.10;;;;;;5030993;28;20033;-66
2021/05/13 19:17:31;;;;;;;1.30;0.90;;;22.40;89.20;;;;;;5030961;28;20043;-66
2021/05/13 19:19:57;;;;;;;1.05;0.70;;;22.40;89.30;;;;;;5031128;28;20022;-66
2021/05/13 19:22:23;;;;;;;2.00;0.80;;;22.30;89.40;;;;;;5029476;28;20032;-66
2021/05/13 19:24:49;;;;;;;2.10;0.80;;;22.30;89.50;;;;;;5032349;28;20029;-66
2021/05/13 19:27:16;;;;;;;1.23;0.93;;;22.30;89.50;;;;;;5031206;28;20021;-66
2021/05/13 19:37:38;;;;;;;1.70;0.90;;;22.20;89.70;;;;;;5028973;28;20036;-66
2021/05/13 19:40:05;;;;;;;1.05;0.80;;;22.20;89.70;;;;;;5031148;28;20009;-66
2021/05/13 19:42:30;;;;;;;1.70;0.90;;;22.10;89.80;;;;;;5030663;28;20029;-66
2021/05/13 19:44:56;;;;;;;1.55;1.00;;;22.10;89.70;;;;;;5030552;28;20041;-66
2021/05/13 19:47:22;;;;;;;1.45;0.93;;;22.10;89.70;;;;;;5028655;28;20033;-66
2021/05/13 19:49:47;;;;;;;1.45;1.00;;;22.10;89.70;;;;;;5030371;28;20033;-66
2021/05/13 19:52:13;;;;;;;1.75;1.00;;;22.10;89.60;;;;;;5030121;28;20036;-65
2021/05/13 19:54:39;;;;;;;1.83;1.00;;;22.10;89.60;;;;;;5030595;28;20021;-68
2021/05/13 19:57:08;;;;;;;4.38;1.05;;;22.10;89.50;;;;;;5030996;28;20478;-65
2021/05/13 19:59:36;;;;;;;5.43;1.20;;;22.10;89.60;;;;;;5029566;28;20386;-65
2021/05/13 20:07:22;;;;;;;1.73;1.35;;;22.00;89.90;;;;;;5030006;28;20033;-66
2021/05/13 20:10:11;;;;;;;1.27;0.98;;;22.00;90.00;;;;;;5029098;28;20031;-66
2021/05/13 20:12:34;;;;;;;2.10;1.27;;;21.90;89.90;;;;;;5029059;28;20103;-65
2021/05/13 20:15:00;;;;;;;1.75;1.40;;;21.90;90.00;;;;;;5029003;28;20462;-65
2021/05/13 20:17:26;;;;;;;1.83;1.52;;;21.90;90.40;;;;;;5028587;28;20017;-66
2021/05/13 20:19:54;;;;;;;2.10;1.30;;;21.90;90.00;;;;;;5029871;28;20026;-66
2021/05/13 20:22:29;;;;;;;3.33;1.20;;;21.80;90.10;;;;;;5024906;28;20022;-66
2021/05/13 20:24:57;;;;;;;3.20;1.70;;;21.80;90.10;;;;;;5030002;28;20053;-66
2021/05/13 20:30:07;;;;;;;2.80;1.70;;;21.80;90.20;;;;;;5029037;28;20042;-66
2021/05/13 20:32:34;;;;;;;2.78;1.52;;;21.80;90.30;;;;;;5027397;28;20096;-67
2021/05/13 20:35:00;;;;;;;2.92;1.80;;;21.80;90.30;;;;;;5030005;28;20029;-67
2021/05/13 20:37:26;;;;;;;2.00;1.70;;;21.80;90.30;;;;;;5029366;28;20033;-67
2021/05/13 20:39:52;;;;;;;3.03;1.90;;;21.70;90.30;;;;;;5029177;28;20477;-66
2021/05/13 20:42:19;;;;;;;2.47;1.73;;;21.70;90.40;;;;;;5027990;28;20036;-67
2021/05/13 20:44:45;;;;;;;3.78;1.52;;;21.70;90.40;;;;;;5028536;28;20063;-66
2021/05/13 20:47:11;;;;;;;2.03;1.70;;;21.70;90.40;;;;;;5026676;28;20044;-66
2021/05/13 20:49:40;;;;;;;2.90;1.73;;;21.70;90.50;;;;;;5029819;28;20430;-67
2021/05/13 20:57:50;;;;;;;1.85;1.33;;;21.70;90.50;;;;;;5030690;28;20071;-67
2021/05/13 21:00:17;;;;;;;3.42;1.55;;;21.70;90.90;;;;;;5023459;28;20465;-71
2021/05/13 21:02:42;;;;;;;2.65;1.63;;;21.80;90.80;;;;;;5029521;28;20474;-72
2021/05/13 21:05:12;;;;;;;2.28;1.42;;;22.00;90.90;;;;;;5028430;28;20033;-74
2021/05/13 21:08:00;;;;;;;3.03;1.55;;;22.30;90.30;;;;;;5033207;28;20040;-70
2021/05/13 21:10:34;;;;;;;3.22;1.58;;;22.50;89.90;;;;;;5049420;28;20067;-71
2021/05/13 21:15:57;;;;;;;2.17;1.42;;;21.90;90.30;;;;;;5035762;28;20029;-70
2021/05/13 21:26:40;;;;;;;3.55;1.70;;;21.20;90.70;;;;;;5032902;28;20022;-68
2021/05/13 21:29:06;;;;;;;3.17;1.92;;;21.10;90.80;;;;;;5035514;28;20033;-65
2021/05/13 21:31:32;;;;;;;2.72;1.50;;;21.00;90.90;;;;;;5034332;28;20494;-68
2021/05/13 21:33:59;;;;;;;2.85;1.50;;;20.90;91.00;;;;;;5034130;28;20029;-67
2021/05/13 21:36:25;;;;;;;4.30;1.60;;;20.80;91.10;;;;;;5033923;28;20095;-70
2021/05/13 21:38:51;;;;;;;2.47;1.70;;;20.70;91.10;;;;;;5033420;28;20041;-68
2021/05/13 21:41:16;;;;;;;3.00;1.80;;;20.70;91.20;;;;;;5032445;28;20495;-71
2021/05/13 21:43:42;;;;;;;2.70;1.60;;;20.60;91.30;;;;;;5035312;28;20116;-72
2021/05/13 21:46:08;;;;;;;2.45;1.70;;;20.50;91.30;;;;;;5034896;28;20021;-70
2021/05/13 21:51:08;;;;;;;3.80;1.85;;;20.40;91.40;;;;;;5014837;28;20034;-71
2021/05/13 21:53:34;;;;;;;2.70;1.63;;;20.30;91.40;;;;;;5032414;28;20064;-71
2021/05/13 21:56:00;;;;;;;2.22;1.95;;;20.20;91.40;;;;;;5032261;28;20068;-69
2021/05/13 21:58:25;;;;;;;2.78;1.73;;;20.20;91.50;;;;;;5032039;28;20053;-70
2021/05/13 22:00:51;;;;;;;2.78;2.00;;;20.10;91.90;;;;;;5030951;28;20041;-69
2021/05/13 22:03:17;;;;;;;3.30;2.40;;;20.00;91.50;;;;;;5032792;28;20025;-69
2021/05/13 22:05:43;;;;;;;2.55;2.10;;;20.00;91.50;;;;;;5033489;28;20032;-65
2021/05/13 22:08:10;;;;;;;4.05;1.92;;;19.90;91.50;;;;;;5033778;28;20026;-64
2021/05/13 22:10:37;;;;;;;4.55;1.90;;;19.90;91.60;;;;;;5033948;28;20033;-63
2021/05/13 22:13:04;;;;;;;3.63;2.28;;;19.90;91.50;;;;;;5033643;28;20033;-63
2021/05/13 22:15:33;;;;;;;2.70;1.95;;;19.90;91.50;;;;;;5033872;28;20033;-64
2021/05/13 22:17:58;;;;;;;2.40;1.83;;;19.80;91.60;;;;;;5033629;28;20473;-64
2021/05/13 22:20:24;;;;;;;3.65;2.33;;;19.80;91.90;;;;;;5033526;28;20045;-65
2021/05/13 22:22:57;;;;;;;3.17;2.20;;;19.80;92.00;;;;;;5033032;28;20018;-67
2021/05/13 22:25:26;;;;;;;2.58;2.00;;;19.70;91.70;;;;;;5033366;28;20029;-63
2021/05/13 22:30:48;;;;;;;3.20;2.00;;;19.70;91.70;;;;;;5031207;28;20049;-69
2021/05/13 22:33:13;;;;;;;2.40;2.00;;;19.60;91.70;;;;;;5032881;28;20100;-67
2021/05/13 22:35:39;;;;;;;3.63;2.25;;;19.60;91.70;;;;;;5033613;28;20053;-64
2021/05/13 22:38:05;;;;;;;3.40;2.38;;;19.60;91.70;;;;;;5033790;28;20033;-68
2021/05/13 22:40:31;;;;;;;3.20;2.10;;;19.60;91.70;;;;;;5033018;28;20029;-66
2021/05/13 22:42:56;;;;;;;2.85;2.00;;;19.50;91.70;;;;;;5033386;28;20025;-64
2021/05/13 22:45:23;;;;;;;4.22;2.42;;;19.50;91.70;;;;;;5013455;28;20121;-62
2021/05/13 22:47:49;;;;;;;2.40;2.20;;;19.50;91.60;;;;;;5029012;28;20432;-66
2021/05/13 22:50:19;;;;;;;2.53;2.28;;;19.50;91.60;;;;;;5033017;28;20039;-68
2021/05/13 22:52:48;;;;;;;2.30;1.95;;;19.50;91.60;;;;;;5033413;28;20044;-69
2021/05/13 22:55:26;;;;;;;3.05;2.15;;;19.50;91.70;;;;;;5032388;28;20029;-69
2021/05/13 22:57:57;;;;;;;3.38;2.45;;;19.40;91.70;;;;;;5032503;28;20038;-68
2021/05/13 23:00:23;;;;;;;2.85;2.42;;;19.40;91.70;;;;;;5032703;28;20033;-66
2021/05/13 23:02:49;;;;;;;2.78;2.08;;;19.40;91.60;;;;;;5033207;28;20033;-68
2021/05/13 23:05:15;;;;;;;2.00;1.80;;;19.40;91.60;;;;;;5033024;28;20147;-70
2021/05/13 23:07:43;;;;;;;3.10;2.20;;;19.40;91.70;;;;;;5032886;28;20026;-67
2021/05/13 23:10:10;;;;;;;3.03;2.00;;;19.40;91.70;;;;;;5032823;28;20481;-63
2021/05/13 23:12:37;;;;;;;3.13;1.95;;;19.30;91.70;;;;;;5033219;28;20109;-68
2021/05/13 23:15:16;;;;;;;3.40;2.20;;;19.30;91.70;;;;;;5032843;28;20021;-66
2021/05/13 23:17:46;;;;;;;2.05;1.83;;;19.30;91.70;;;;;;5032845;28;20113;-64
2021/05/13 23:20:13;;;;;;;2.70;2.10;;;19.30;91.70;;;;;;5032187;28;20037;-65
2021/05/13 23:22:39;;;;;;;3.03;2.22;;;19.30;91.80;;;;;;5033086;28;20025;-64
2021/05/13 23:25:05;;;;;;;2.45;2.20;;;19.30;91.70;;;;;;5032399;28;20029;-67
2021/05/13 23:27:31;;;;;;;2.08;1.88;;;19.30;91.70;;;;;;5031916;28;20029;-70
2021/05/13 23:29:56;;;;;;;2.33;2.08;;;19.20;91.70;;;;;;5032334;28;20087;-68
2021/05/13 23:32:22;;;;;;;2.75;2.25;;;19.20;91.70;;;;;;5032423;28;20482;-68
2021/05/13 23:34:48;;;;;;;2.70;1.90;;;19.20;91.70;;;;;;5031123;28;20048;-67
2021/05/13 23:37:13;;;;;;;2.20;2.00;;;19.20;91.70;;;;;;5032112;28;20060;-72
2021/05/13 23:39:40;;;;;;;2.85;2.10;;;19.10;91.70;;;;;;5032448;28;20025;-63
2021/05/13 23:42:06;;;;;;;2.75;2.40;;;19.10;91.80;;;;;;5032618;28;20032;-69
2021/05/13 23:44:31;;;;;;;2.75;2.30;;;19.10;91.80;;;;;;5031890;28;20112;-63
2021/05/13 23:46:57;;;;;;;2.20;1.92;;;19.10;91.70;;;;;;5031993;28;20025;-65
2021/05/13 23:49:23;;;;;;;4.07;1.80;;;19.10;91.70;;;;;;5031755;28;20029;-63
2021/05/13 23:51:50;;;;;;;2.47;2.10;;;19.10;91.70;;;;;;5031978;28;20037;-68
2021/05/13 23:54:16;;;;;;;3.70;2.40;;;19.10;91.70;;;;;;5031330;28;20513;-65
2021/05/13 23:56:41;;;;;;;2.50;2.00;;;19.10;91.70;;;;;;5031652;28;20053;-68
2021/05/13 23:59:08;;;;;;;2.33;1.85;;;19.10;91.70;;;;;;5031058;28;20030;-70
